Time;durP1;ratioP1;P1;durP2;ratioP2;P2;SDS_P1;SDS_P2;PMS_P1;PMS_P2;Temp;Humidity;BMP_temperature;BMP_pressure;BME280_temperature;BME280_humidity;BME280_pressure;Samples;Min_cycle;Max_cycle;Signal;HPM_P1;HPM_P2
2022/06/05 00:02:00;;;;;;;7.28;4.25;;;;;;;17.58;57.68;100414.39;1743467;82;21023;-70
2022/06/05 00:04:44;;;;;;;6.47;3.90;;;;;;;17.55;57.55;100401.53;1743419;82;21031;-70
2022/06/05 00:07:18;;;;;;;6.87;4.30;;;;;;;17.51;57.66;100399.79;1743577;82;21030;-70
2022/06/05 00:09:59;;;;;;;6.83;3.83;;;;;;;17.50;57.84;100402.80;1743278;82;21044;-70
2022/06/05 00:12:39;;;;;;;5.97;3.70;;;;;;;17.49;57.82;100409.42;1743532;82;21078;-70
2022/06/05 00:15:10;;;;;;;13.18;4.40;;;;;;;17.46;57.49;100417.68;1729348;82;21031;-70
2022/06/05 00:17:39;;;;;;;7.45;3.58;;;;;;;17.44;57.39;100415.16;1743693;82;21023;-70
2022/06/05 00:20:11;;;;;;;6.67;3.85;;;;;;;17.43;57.56;100412.63;1654658;86;21070;-70
2022/06/05 00:22:40;;;;;;;5.67;3.40;;;;;;;17.41;57.99;100397.64;1654594;87;21070;-71
2022/06/05 00:25:10;;;;;;;5.62;3.45;;;;;;;17.38;58.27;100395.34;1654432;87;21459;-71
2022/06/05 00:27:54;;;;;;;4.28;3.22;;;;;;;17.37;58.24;100390.89;1654598;87;21541;-70
2022/06/05 00:30:31;;;;;;;4.70;3.15;;;;;;;17.34;58.06;100383.07;1654425;87;21098;-70
2022/06/05 00:33:10;;;;;;;4.75;3.45;;;;;;;17.30;58.07;100379.64;1653174;87;21101;-71
2022/06/05 00:35:56;;;;;;;5.55;3.58;;;;;;;17.27;58.13;100374.05;1654751;87;21051;-71
2022/06/05 00:38:43;;;;;;;5.30;3.50;;;;;;;17.24;58.34;100371.77;1703132;82;21036;-70
2022/06/05 00:41:40;;;;;;;4.42;3.40;;;;;;;17.21;58.46;100366.71;1743136;82;21055;-70
2022/06/05 00:44:10;;;;;;;5.05;3.27;;;;;;;17.17;58.52;100369.66;1743553;82;21040;-71
2022/06/05 00:46:38;;;;;;;4.17;3.10;;;;;;;17.18;58.59;100365.81;1743572;82;21070;-70
2022/06/05 00:49:08;;;;;;;4.17;3.35;;;;;;;17.22;58.44;100367.55;1743826;82;21078;-71
2022/06/05 00:51:37;;;;;;;4.97;3.30;;;;;;;17.24;58.37;100366.77;1743416;82;21074;-71
2022/06/05 00:54:06;;;;;;;5.92;3.70;;;;;;;17.26;58.26;100365.98;1743426;82;21027;-70
2022/06/05 00:56:37;;;;;;;5.25;3.35;;;;;;;17.31;58.09;100366.94;1743487;82;21007;-70
2022/06/05 00:59:07;;;;;;;4.65;3.02;;;;;;;17.38;57.87;100366.27;1716696;82;21091;-70
2022/06/05 01:01:36;;;;;;;6.85;3.10;;;;;;;17.40;57.85;100357.17;1743195;82;21051;-70
2022/06/05 01:04:05;;;;;;;4.50;3.22;;;;;;;17.44;57.81;100361.14;1743361;82;21011;-69
2022/06/05 01:06:33;;;;;;;3.65;2.92;;;;;;;17.51;57.74;100360.16;1743262;82;21082;-70
2022/06/05 01:09:05;;;;;;;6.12;3.10;;;;;;;17.55;57.63;100360.81;1743310;82;21509;-71
2022/06/05 01:12:09;;;;;;;5.10;3.10;;;;;;;17.59;57.54;100351.50;1743514;82;21099;-70
2022/06/05 01:14:56;;;;;;;3.98;2.90;;;;;;;17.62;57.38;100359.32;1743370;82;21435;-71
2022/06/05 01:17:42;;;;;;;3.30;2.70;;;;;;;17.62;57.03;100355.16;1743654;82;21035;-70
2022/06/05 01:20:40;;;;;;;3.37;2.80;;;;;;;17.60;56.92;100354.02;1743630;82;21456;-71
2022/06/05 01:23:27;;;;;;;;;;;;;;;17.61;56.97;100345.17;1746139;82;21031;-71
2022/06/05 01:26:24;;;;;;;3.40;2.80;;;;;;;17.58;56.81;100350.66;1743531;82;20154;-70
2022/06/05 01:29:08;;;;;;;2.92;2.45;;;;;;;17.55;56.78;100342.80;1743342;82;21055;-70
2022/06/05 01:31:45;;;;;;;4.67;2.80;;;;;;;17.56;56.82;100347.84;1743518;82;21031;-71
2022/06/05 01:34:50;;;;;;;4.30;2.62;;;;;;;17.53;56.79;100353.29;1743458;82;21111;-70
2022/06/05 01:37:38;;;;;;;4.78;2.77;;;;;;;17.52;56.82;100357.14;1743293;82;21016;-70
2022/06/05 01:40:17;;;;;;;3.60;2.77;;;;;;;17.54;56.79;100356.91;1743520;82;21099;-70
2022/06/05 01:42:57;;;;;;;5.35;3.02;;;;;;;17.55;56.78;100356.66;1743202;82;21779;-71
2022/06/05 01:45:44;;;;;;;3.52;2.77;;;;;;;17.57;56.63;100356.44;1743525;82;21019;-71
2022/06/05 01:48:24;;;;;;;4.70;2.80;;;;;;;17.58;56.44;100358.97;1743424;82;21055;-70
2022/06/05 01:50:59;;;;;;;3.90;2.80;;;;;;;17.59;56.51;100354.27;1743566;82;21027;-68
2022/06/05 01:53:32;;;;;;;4.40;2.47;;;;;;;17.61;56.56;100356.25;1743510;82;21003;-70
2022/06/05 01:56:08;;;;;;;3.62;2.60;;;;;;;17.64;56.22;100357.15;1743226;82;21169;-70
2022/06/05 01:58:52;;;;;;;3.40;2.35;;;;;;;17.66;56.11;100355.84;1743998;82;21031;-70
2022/06/05 02:01:24;;;;;;;4.15;2.70;;;;;;;17.71;56.07;100360.66;1742522;82;21047;-69
2022/06/05 02:04:11;;;;;;;3.55;2.40;;;;;;;17.73;56.08;100357.09;1743673;82;21055;-69
2022/06/05 02:06:45;;;;;;;3.15;2.40;;;;;;;17.77;56.42;100366.59;1738114;82;21043;-71
2022/06/05 02:09:19;;;;;;;6.47;2.60;;;;;;;17.73;56.73;100361.25;1743408;82;21185;-70
2022/06/05 02:11:49;;;;;;;3.85;2.60;;;;;;;17.70;56.69;100357.04;1743595;82;21462;-70
2022/06/05 02:14:17;;;;;;;5.15;2.80;;;;;;;17.69;56.66;100359.52;1743276;82;21020;-70
2022/06/05 02:16:48;;;;;;;3.40;2.70;;;;;;;17.71;56.38;100350.95;1708251;82;21059;-69
2022/06/05 02:19:18;;;;;;;5.17;2.60;;;;;;;17.72;56.19;100348.48;1743178;82;21075;-69
2022/06/05 02:21:49;;;;;;;3.58;2.85;;;;;;;17.71;56.23;100343.48;1743456;82;20983;-69
2022/06/05 02:24:18;;;;;;;6.62;2.65;;;;;;;17.72;56.38;100335.47;1743756;82;21047;-71
2022/06/05 02:26:47;;;;;;;4.35;2.83;;;;;;;17.70;56.32;100327.94;1743634;82;21046;-71
2022/06/05 02:29:20;;;;;;;5.40;2.62;;;;;;;17.68;56.25;100324.58;1743137;82;21398;-71
2022/06/05 02:32:25;;;;;;;4.30;2.83;;;;;;;17.70;56.10;100324.33;1743373;82;21010;-70
2022/06/05 02:35:20;;;;;;;3.70;2.80;;;;;;;17.69;55.86;100330.41;1743470;82;21452;-70
2022/06/05 02:38:28;;;;;;;4.12;2.60;;;;;;;17.72;55.54;100325.77;1743400;82;21075;-70
2022/06/05 02:41:10;;;;;;;4.22;2.70;;;;;;;17.77;55.33;100328.34;1743130;82;21043;-70
2022/06/05 02:47:22;;;;;;;5.65;2.55;;;;;;;17.86;54.56;100333.25;1743418;81;20991;-70
2022/06/05 02:50:03;;;;;;;2.98;2.40;;;;;;;17.92;54.42;100325.33;1743563;82;21083;-69
2022/06/05 02:52:32;;;;;;;3.67;2.55;;;;;;;17.98;54.26;100333.19;1712377;82;21012;-70
2022/06/05 02:55:08;;;;;;;4.47;2.55;;;;;;;18.04;54.34;100330.81;1743586;82;21134;-70
2022/06/05 02:57:37;;;;;;;3.75;2.62;;;;;;;18.06;54.40;100322.55;1743655;82;21074;-70
2022/06/05 03:00:11;;;;;;;6.35;2.77;;;;;;;18.11;54.43;100320.95;1743508;82;21067;-70
2022/06/05 03:05:28;;;;;;;5.17;2.70;;;;;;;18.08;54.48;100307.04;1743741;82;21007;-70
2022/06/05 03:07:59;;;;;;;2.62;2.35;;;;;;;18.05;54.45;100304.22;1743668;82;21044;-69
2022/06/05 03:10:28;;;;;;;5.55;2.83;;;;;;;18.06;54.50;100305.06;1743533;82;21035;-70
2022/06/05 03:12:57;;;;;;;3.62;2.50;;;;;;;18.09;54.29;100308.73;1743616;82;21019;-68
2022/06/05 03:15:25;;;;;;;7.35;2.70;;;;;;;18.14;54.42;100307.98;1743341;82;21007;-71
2022/06/05 03:17:55;;;;;;;3.92;2.60;;;;;;;18.16;54.39;100308.56;1743442;82;21047;-70
2022/06/05 03:20:25;;;;;;;3.52;2.25;;;;;;;18.17;54.08;100303.31;1743174;82;21404;-69
2022/06/05 03:22:54;;;;;;;3.35;2.50;;;;;;;18.18;53.76;100306.38;1742828;82;21660;-70
2022/06/05 03:25:24;;;;;;;7.92;2.40;;;;;;;18.22;53.60;100314.53;1743208;82;21517;-70
2022/06/05 03:27:55;;;;;;;6.78;2.45;;;;;;;18.24;53.25;100313.73;1743420;82;21007;-70
2022/06/05 03:30:24;;;;;;;5.95;2.42;;;;;;;18.26;53.23;100309.62;1743746;82;21062;-70
2022/06/05 03:32:52;;;;;;;4.40;1.98;;;;;;;18.29;53.18;100304.12;1743671;82;21087;-71
2022/06/05 03:35:21;;;;;;;3.58;1.92;;;;;;;18.30;52.70;100296.09;1743851;82;21011;-69
2022/06/05 03:37:50;;;;;;;2.55;1.82;;;;;;;18.32;52.24;100298.91;1743490;82;21019;-70
2022/06/05 03:40:20;;;;;;;2.52;2.00;;;;;;;18.36;52.11;100305.64;1743633;82;21007;-70
2022/06/05 03:42:50;;;;;;;5.47;1.80;;;;;;;18.40;51.99;100307.36;1743348;82;21498;-70
2022/06/05 03:45:22;;;;;;;3.55;1.87;;;;;;;18.44;52.49;100307.70;1743486;82;21696;-70
2022/06/05 03:47:51;;;;;;;3.25;1.80;;;;;;;18.44;52.06;100298.83;1743695;82;21465;-70
2022/06/05 03:50:20;;;;;;;4.40;2.00;;;;;;;18.48;51.71;100309.72;1743499;81;21039;-69
2022/06/05 03:52:49;;;;;;;2.98;1.70;;;;;;;18.54;51.19;100310.64;1743526;82;21024;-69
2022/06/05 03:55:21;;;;;;;2.10;1.90;;;;;;;18.60;50.95;100317.41;1744350;82;21117;-69
2022/06/05 03:57:50;;;;;;;2.30;2.00;;;;;;;18.65;50.98;100313.36;1748846;82;21446;-71
2022/06/05 04:00:20;;;;;;;3.92;1.75;;;;;;;18.71;50.75;100314.83;1748663;82;21043;-70
2022/06/05 04:02:49;;;;;;;3.02;1.72;;;;;;;18.74;50.49;100314.33;1748640;82;21019;-70
2022/06/05 04:05:20;;;;;;;4.25;1.90;;;;;;;18.78;50.46;100309.40;1748907;82;21027;-70
2022/06/05 04:07:49;;;;;;;2.27;1.90;;;;;;;18.81;50.38;100317.22;1748759;82;21062;-70
2022/06/05 04:10:18;;;;;;;4.35;2.00;;;;;;;18.85;50.21;100321.72;1748709;82;21027;-69
2022/06/05 04:12:47;;;;;;;5.30;2.45;;;;;;;18.88;50.16;100324.86;1749066;82;21058;-69
2022/06/05 04:15:17;;;;;;;5.05;2.58;;;;;;;18.89;50.24;100314.59;1748777;82;21549;-70
2022/06/05 04:17:45;;;;;;;6.85;2.58;;;;;;;18.87;50.25;100321.79;1748660;82;21023;-71
2022/06/05 04:20:15;;;;;;;6.40;2.47;;;;;;;18.85;50.31;100325.88;1748559;82;21435;-69
2022/06/05 04:22:43;;;;;;;4.65;2.52;;;;;;;18.83;50.96;100325.30;1748749;82;21076;-70
2022/06/05 04:25:14;;;;;;;3.67;2.17;;;;;;;18.84;51.17;100324.20;1748725;82;21058;-70
2022/06/05 04:27:44;;;;;;;11.33;2.58;;;;;;;18.85;51.15;100321.17;1659930;86;21081;-69
2022/06/05 04:30:13;;;;;;;5.28;2.10;;;;;;;18.88;50.88;100322.63;1660439;86;21079;-71
2022/06/05 04:32:42;;;;;;;6.33;2.40;;;;;;;18.92;51.04;100325.19;1660103;86;21124;-70
2022/06/05 04:35:11;;;;;;;4.25;2.22;;;;;;;18.95;51.14;100321.35;1660117;86;21056;-70
2022/06/05 04:37:40;;;;;;;5.85;2.40;;;;;;;18.98;50.80;100331.11;1660374;86;21052;-69
2022/06/05 04:40:10;;;;;;;5.75;2.55;;;;;;;19.02;50.17;100332.28;1660536;86;21080;-70
2022/06/05 04:42:39;;;;;;;5.00;2.40;;;;;;;19.02;49.95;100331.44;1660125;86;21091;-70
2022/06/05 04:45:09;;;;;;;4.90;2.50;;;;;;;18.99;50.12;100333.63;1660052;86;21104;-69
2022/06/05 04:47:39;;;;;;;6.90;2.42;;;;;;;18.99;50.24;100342.52;1660293;86;21076;-69
2022/06/05 04:50:09;;;;;;;5.37;2.50;;;;;;;19.00;50.43;100338.09;1660215;86;21138;-70
2022/06/05 04:52:38;;;;;;;7.35;2.83;;;;;;;19.07;50.52;100348.18;1713745;82;21451;-70
2022/06/05 04:55:08;;;;;;;4.50;2.37;;;;;;;19.12;50.64;100351.88;1747383;82;21075;-70
2022/06/05 04:57:38;;;;;;;5.35;2.70;;;;;;;19.17;49.71;100365.00;1743492;82;21447;-70
2022/06/05 05:00:08;;;;;;;4.25;2.33;;;;;;;19.18;49.27;100374.46;1743487;82;21016;-70
2022/06/05 05:02:38;;;;;;;4.47;2.35;;;;;;;19.19;49.61;100379.47;1743629;82;21023;-70
2022/06/05 05:05:08;;;;;;;7.25;2.35;;;;;;;19.18;49.93;100386.97;1743428;82;21051;-70
2022/06/05 05:07:36;;;;;;;4.65;2.35;;;;;;;19.17;50.27;100385.28;1743515;82;21412;-70
2022/06/05 05:10:07;;;;;;;2.42;1.70;;;;;;;19.22;50.27;100395.63;1743294;82;21044;-71
2022/06/05 05:12:36;;;;;;;7.62;2.37;;;;;;;19.27;50.08;100395.70;1743451;82;21059;-70
2022/06/05 05:15:07;;;;;;;8.23;3.08;;;;;;;19.30;49.76;100393.80;1743398;82;21459;-70
2022/06/05 05:17:37;;;;;;;6.97;2.90;;;;;;;19.35;49.72;100393.03;1743197;82;21442;-70
2022/06/05 05:20:10;;;;;;;7.37;3.33;;;;;;;19.40;50.00;100394.50;1743292;82;21432;-70
2022/06/05 05:22:40;;;;;;;9.15;3.25;;;;;;;19.45;50.09;100393.19;1743200;82;21043;-70
2022/06/05 05:25:10;;;;;;;5.60;3.10;;;;;;;19.48;50.08;100396.29;1743372;82;21070;-70
2022/06/05 05:27:39;;;;;;;5.17;3.55;;;;;;;19.50;50.07;100401.59;1743479;82;21063;-70
2022/06/05 05:30:10;;;;;;;7.45;3.65;;;;;;;19.53;50.27;100396.97;1743625;82;21423;-72
2022/06/05 05:32:38;;;;;;;4.15;3.08;;;;;;;19.53;50.25;100404.77;1743543;82;21047;-71
2022/06/05 05:35:09;;;;;;;5.92;3.50;;;;;;;19.54;50.34;100413.94;1743270;82;21075;-70
2022/06/05 05:37:38;;;;;;;7.60;3.20;;;;;;;19.55;50.23;100413.69;1743615;82;21550;-70
2022/06/05 05:42:57;;;;;;;9.03;3.60;;;;;;;19.57;50.29;100410.65;1743363;82;21448;-70
2022/06/05 05:45:27;;;;;;;5.85;3.42;;;;;;;19.62;50.57;100413.50;1743375;82;21447;-70
2022/06/05 05:47:56;;;;;;;8.28;4.45;;;;;;;19.69;50.16;100416.93;1743818;82;21011;-71
2022/06/05 05:50:26;;;;;;;9.23;4.03;;;;;;;19.74;49.63;100417.00;1743399;82;22011;-70
2022/06/05 05:52:57;;;;;;;14.00;4.55;;;;;;;19.80;49.41;100415.12;1743253;82;21004;-70
2022/06/05 05:55:26;;;;;;;6.90;4.33;;;;;;;19.84;49.26;100424.08;1743471;82;20985;-69
2022/06/05 05:57:55;;;;;;;6.80;3.83;;;;;;;19.90;48.86;100416.65;1748531;82;20987;-70
2022/06/05 06:00:27;;;;;;;7.85;4.67;;;;;;;19.91;49.23;100407.20;1748447;82;21524;-70
2022/06/05 06:02:57;;;;;;;10.32;4.72;;;;;;;19.94;49.51;100410.30;1748453;82;21019;-69
2022/06/05 06:05:26;;;;;;;7.05;4.42;;;;;;;19.97;49.00;100409.50;1748605;82;21646;-70
2022/06/05 06:07:56;;;;;;;7.60;4.10;;;;;;;20.03;49.14;100402.89;1748588;82;22002;-69
2022/06/05 06:10:26;;;;;;;11.10;4.97;;;;;;;20.09;48.94;100402.70;1748664;82;21023;-70
2022/06/05 06:12:54;;;;;;;9.98;4.90;;;;;;;20.14;49.26;100397.73;1748711;82;21079;-70
2022/06/05 06:15:25;;;;;;;8.38;4.87;;;;;;;20.18;48.69;100395.59;1748479;82;21408;-69
2022/06/05 06:17:56;;;;;;;8.63;5.22;;;;;;;20.20;48.57;100392.55;1748434;82;21480;-69
2022/06/05 06:20:25;;;;;;;10.25;4.83;;;;;;;20.23;48.46;100386.47;1748632;82;21066;-71
2022/06/05 06:22:54;;;;;;;8.98;5.45;;;;;;;20.29;48.09;100380.41;1748420;82;21055;-69
2022/06/05 06:25:24;;;;;;;9.03;4.87;;;;;;;20.30;48.35;100380.69;1748470;82;21082;-69
2022/06/05 06:27:53;;;;;;;10.28;5.37;;;;;;;20.34;48.26;100385.47;1749078;82;21043;-70
2022/06/05 06:30:22;;;;;;;13.18;6.25;;;;;;;20.35;47.98;100385.76;1748884;82;21015;-69
2022/06/05 06:32:52;;;;;;;13.78;6.00;;;;;;;20.36;47.75;100386.59;1748882;82;21459;-70
2022/06/05 06:35:21;;;;;;;13.13;6.28;;;;;;;20.39;47.69;100391.12;1748811;82;21109;-70
2022/06/05 06:37:49;;;;;;;9.90;5.85;;;;;;;20.42;47.80;100389.20;1748714;82;21098;-71
2022/06/05 06:40:18;;;;;;;15.18;6.50;;;;;;;20.46;48.35;100390.36;1749018;82;21027;-71
2022/06/05 06:42:47;;;;;;;15.58;6.85;;;;;;;20.47;48.05;100392.03;1748698;82;21056;-70
2022/06/05 06:45:18;;;;;;;12.13;6.90;;;;;;;20.51;47.70;100395.97;1748107;82;21047;-72
2022/06/05 06:47:48;;;;;;;11.88;6.65;;;;;;;20.58;47.52;100399.37;1748941;82;21031;-70
2022/06/05 06:50:18;;;;;;;15.55;7.28;;;;;;;20.64;47.45;100400.83;1749134;82;21074;-70
2022/06/05 06:52:47;;;;;;;10.90;6.50;;;;;;;20.63;47.51;100403.32;1748556;82;21130;-71
2022/06/05 06:55:18;;;;;;;14.10;6.40;;;;;;;20.63;47.94;100394.41;1748455;82;21424;-70
2022/06/05 06:57:49;;;;;;;10.88;6.30;;;;;;;20.67;48.03;100394.72;1749569;81;21047;-72
2022/06/05 07:00:18;;;;;;;8.13;4.28;;;;;;;20.71;47.92;100395.33;1748874;82;20999;-70
2022/06/05 07:02:47;;;;;;;6.08;3.08;;;;;;;20.77;48.15;100394.81;1749185;81;21467;-70
2022/06/05 07:05:17;;;;;;;7.55;3.15;;;;;;;20.78;47.46;100391.77;1749259;81;21075;-71
2022/06/05 07:07:47;;;;;;;5.67;2.80;;;;;;;20.84;46.96;100397.70;1748819;82;21020;-71
2022/06/05 07:10:18;;;;;;;4.22;2.42;;;;;;;20.87;47.18;100399.11;1748611;82;21481;-71
2022/06/05 07:12:49;;;;;;;3.65;2.67;;;;;;;20.91;47.43;100399.42;1748700;82;21473;-70
2022/06/05 07:15:18;;;;;;;5.15;2.40;;;;;;;20.92;47.73;100401.94;1748484;82;21090;-71
2022/06/05 07:17:47;;;;;;;3.60;2.98;;;;;;;20.88;48.32;100408.59;1749081;82;20991;-69
2022/06/05 07:20:17;;;;;;;5.72;2.75;;;;;;;20.86;48.58;100408.57;1748832;82;21087;-68
2022/06/05 07:22:46;;;;;;;5.83;2.35;;;;;;;20.84;48.75;100402.43;1748582;82;20975;-70
2022/06/05 07:25:18;;;;;;;3.12;2.42;;;;;;;20.82;49.53;100406.03;1747868;82;21043;-70
2022/06/05 07:27:47;;;;;;;2.67;2.40;;;;;;;20.69;49.21;100397.53;1748536;82;21043;-70
2022/06/05 07:30:16;;;;;;;3.30;2.60;;;;;;;20.62;49.49;100400.25;1748495;82;21019;-70
2022/06/05 07:32:47;;;;;;;7.17;2.67;;;;;;;20.55;49.99;100399.91;1748538;82;21042;-69
2022/06/05 07:35:16;;;;;;;3.95;2.52;;;;;;;20.49;50.61;100403.75;1748745;82;21082;-72
2022/06/05 07:37:45;;;;;;;4.33;2.25;;;;;;;20.40;50.21;100392.80;1748844;82;21067;-70
2022/06/05 07:40:16;;;;;;;3.90;2.40;;;;;;;20.34;50.59;100397.16;1745112;82;21185;-72
2022/06/05 07:42:45;;;;;;;7.15;2.60;;;;;;;20.31;50.48;100405.48;1748814;82;20999;-70
2022/06/05 07:45:16;;;;;;;5.20;2.70;;;;;;;20.30;50.36;100409.36;1765358;81;21017;-72
2022/06/05 07:47:45;;;;;;;3.90;2.37;;;;;;;20.32;50.06;100411.33;1767417;81;21448;-70
2022/06/05 07:50:15;;;;;;;3.52;2.50;;;;;;;20.31;50.12;100411.04;1765384;80;21045;-70
2022/06/05 07:55:32;;;;;;;;;;;;;;;20.25;49.94;100413.48;1757824;80;21081;-71
2022/06/05 07:58:02;;;;;;;3.45;2.20;;;;;;;20.23;50.12;100401.77;1737076;80;20225;-70
2022/06/05 08:00:32;;;;;;;4.25;2.40;;;;;;;20.19;50.51;100404.78;1752542;81;21102;-71
2022/06/05 08:03:00;;;;;;;4.00;2.47;;;;;;;20.20;50.77;100405.08;1752024;81;21090;-70
2022/06/05 08:05:30;;;;;;;2.65;1.92;;;;;;;20.23;50.31;100403.16;1752342;82;21098;-70
2022/06/05 08:07:59;;;;;;;4.62;2.80;;;;;;;20.22;50.16;100405.66;1752443;82;21023;-72
2022/06/05 08:10:27;;;;;;;2.50;2.10;;;;;;;20.19;50.02;100397.83;1752442;82;21015;-72
2022/06/05 08:12:56;;;;;;;4.05;2.35;;;;;;;20.17;49.96;100397.25;1752112;82;21094;-71
2022/06/05 08:15:25;;;;;;;4.05;2.20;;;;;;;20.18;50.03;100405.89;1751347;82;21516;-70
2022/06/05 08:17:54;;;;;;;4.62;2.40;;;;;;;20.20;49.94;100393.95;1751430;81;21022;-69
2022/06/05 08:20:22;;;;;;;3.95;2.58;;;;;;;20.22;50.26;100398.70;1751577;82;21086;-64
2022/06/05 08:22:51;;;;;;;3.15;2.20;;;;;;;20.22;50.57;100394.52;1751881;82;21018;-63
2022/06/05 08:25:21;;;;;;;3.77;2.25;;;;;;;20.24;50.29;100395.94;1751233;81;21034;-65
2022/06/05 08:27:50;;;;;;;5.67;2.72;;;;;;;20.26;50.36;100395.12;1751393;82;21038;-69
2022/06/05 08:30:19;;;;;;;3.62;2.45;;;;;;;20.29;50.43;100398.48;1748970;80;21070;-65
2022/06/05 08:32:49;;;;;;;3.83;2.50;;;;;;;20.32;50.75;100402.98;1751930;81;21462;-66
2022/06/05 08:35:18;;;;;;;5.47;2.83;;;;;;;20.34;51.78;100400.77;1752001;82;21058;-67
2022/06/05 08:43:51;;;;;;;6.03;3.33;;;;;;;20.40;53.83;100403.94;1744369;82;21082;-67
2022/06/05 08:46:33;;;;;;;3.92;3.40;;;;;;;20.40;53.96;100396.14;1746508;81;21047;-65
2022/06/05 08:49:07;;;;;;;5.85;3.00;;;;;;;20.42;53.63;100398.95;1739375;80;21022;-66
2022/06/05 08:51:53;;;;;;;3.62;2.27;;;;;;;20.45;53.44;100398.42;1744633;80;21010;-66
2022/06/05 08:54:32;;;;;;;3.37;2.10;;;;;;;20.44;51.73;100396.73;1752132;82;20991;-67
2022/06/05 08:57:18;;;;;;;3.08;2.35;;;;;;;20.43;51.40;100399.23;1753867;81;21073;-64
2022/06/05 09:00:13;;;;;;;5.85;2.10;;;;;;;20.44;50.95;100402.30;1757552;81;21019;-64
2022/06/05 09:03:03;;;;;;;4.42;1.80;;;;;;;20.42;50.02;100405.06;1755660;82;21057;-65
2022/06/05 09:05:39;;;;;;;5.15;2.30;;;;;;;20.38;49.85;100413.62;1755874;82;21035;-64
2022/06/05 09:08:12;;;;;;;;;;;;;;;20.35;49.72;100421.94;1758884;82;21031;-63
2022/06/05 09:10:48;;;;;;;6.22;2.20;;;;;;;20.32;49.60;100415.50;1755106;82;20583;-66
2022/06/05 09:13:25;;;;;;;3.83;2.10;;;;;;;20.24;50.24;100408.47;1755790;82;21050;-64
2022/06/05 09:16:00;;;;;;;3.30;2.08;;;;;;;20.19;50.95;100410.35;1748927;81;21505;-62
2022/06/05 09:18:36;;;;;;;7.53;2.15;;;;;;;20.13;51.20;100421.09;1760673;81;21102;-62
2022/06/05 09:21:38;;;;;;;6.67;2.20;;;;;;;20.14;51.28;100417.21;1760939;81;21495;-60
2022/06/05 09:24:18;;;;;;;4.03;1.90;;;;;;;20.12;51.51;100416.63;1760987;80;21030;-60
2022/06/05 09:27:00;;;;;;;2.65;1.90;;;;;;;20.10;51.75;100427.18;1762022;81;21038;-60
2022/06/05 09:29:59;;;;;;;2.33;1.90;;;;;;;20.13;51.96;100430.83;1762140;81;20994;-60
2022/06/05 09:32:59;;;;;;;3.52;1.70;;;;;;;20.12;51.73;100427.77;1718644;83;21050;-61
2022/06/05 09:35:43;;;;;;;2.47;2.00;;;;;;;20.13;51.95;100430.83;1710719;84;21517;-61
2022/06/05 09:38:44;;;;;;;3.25;1.95;;;;;;;20.15;51.91;100423.07;1690548;85;21075;-59
2022/06/05 09:41:34;;;;;;;4.33;1.80;;;;;;;20.20;52.05;100426.78;1694800;84;21075;-60
2022/06/05 09:44:19;;;;;;;2.85;1.90;;;;;;;20.26;51.94;100425.73;1728537;83;21031;-59
2022/06/05 09:46:58;;;;;;;4.12;2.20;;;;;;;20.34;51.86;100416.63;1694928;84;21019;-59
2022/06/05 09:49:40;;;;;;;3.22;1.80;;;;;;;20.45;51.54;100421.23;1728336;83;21078;-60
2022/06/05 09:52:17;;;;;;;2.00;1.72;;;;;;;20.54;51.32;100420.50;1728179;83;21087;-63
2022/06/05 09:55:10;;;;;;;2.30;1.70;;;;;;;20.62;50.17;100421.97;1728357;83;21035;-64
2022/06/05 09:58:25;;;;;;;1.70;1.60;;;;;;;20.62;50.26;100421.13;1721379;81;21051;-63
2022/06/05 10:00:58;;;;;;;1.95;1.70;;;;;;;20.63;49.81;100418.62;1712388;84;21049;-62
2022/06/05 10:03:37;;;;;;;1.75;1.50;;;;;;;20.65;49.45;100422.83;1711841;84;21092;-64
2022/06/05 10:06:39;;;;;;;2.35;1.47;;;;;;;20.68;49.24;100426.48;1699362;83;21529;-68
2022/06/05 10:09:21;;;;;;;5.72;1.92;;;;;;;20.70;48.61;100425.66;1692597;85;21058;-64
2022/06/05 10:11:59;;;;;;;3.42;1.70;;;;;;;20.73;48.64;100425.69;1692657;85;21003;-62
2022/06/05 10:14:47;;;;;;;4.05;1.72;;;;;;;20.76;48.54;100421.83;1663311;85;21062;-62
2022/06/05 10:17:51;;;;;;;3.65;1.60;;;;;;;20.76;49.28;100424.61;1665934;86;21138;-63
2022/06/05 10:20:36;;;;;;;2.52;1.82;;;;;;;20.79;48.67;100424.63;1642847;86;21083;-64
2022/06/05 10:23:32;;;;;;;1.70;1.60;;;;;;;20.81;48.53;100419.67;1697852;83;21046;-63
2022/06/05 10:26:37;;;;;;;2.60;1.80;;;;;;;20.83;48.32;100420.24;1697881;84;21027;-63
2022/06/05 10:29:18;;;;;;;4.15;1.87;;;;;;;20.86;48.56;100423.89;1697750;84;21498;-63
2022/06/05 10:32:08;;;;;;;2.30;1.80;;;;;;;20.96;48.51;100428.16;1697774;84;21050;-62
2022/06/05 10:35:03;;;;;;;2.30;1.67;;;;;;;21.09;48.46;100434.67;1697798;84;21339;-64
2022/06/05 10:37:49;;;;;;;4.42;1.90;;;;;;;21.20;48.00;100434.20;1697741;84;21109;-63
2022/06/05 10:40:35;;;;;;;1.90;1.62;;;;;;;21.30;47.73;100437.65;1697888;84;21070;-65
2022/06/05 10:43:27;;;;;;;2.45;1.60;;;;;;;21.38;47.92;100434.36;1701128;84;21080;-64
2022/06/05 10:46:25;;;;;;;2.65;2.02;;;;;;;21.47;47.30;100435.56;1712631;84;21064;-65
2022/06/05 10:49:02;;;;;;;;;;;;;;;21.53;47.39;100431.70;1672284;84;21091;-64
2022/06/05 10:52:00;;;;;;;4.00;2.62;;;;;;;21.64;47.17;100429.81;1676030;84;20259;-71
2022/06/05 10:54:51;;;;;;;3.20;1.72;;;;;;;21.70;46.69;100428.73;1697037;84;21027;-69
2022/06/05 10:57:33;;;;;;;3.42;1.50;;;;;;;21.76;45.69;100431.83;1700062;83;21078;-69
2022/06/05 11:00:17;;;;;;;3.90;1.57;;;;;;;21.77;45.26;100426.53;1723029;82;21418;-68
2022/06/05 11:03:14;;;;;;;2.55;1.80;;;;;;;21.79;45.36;100439.10;1715042;82;21451;-68
2022/06/05 11:06:08;;;;;;;2.98;1.62;;;;;;;21.84;44.97;100436.34;1661160;86;21509;-69
2022/06/05 11:09:13;;;;;;;2.90;1.72;;;;;;;21.89;44.51;100431.89;1685758;85;21757;-69
2022/06/05 11:15:10;;;;;;;2.27;1.75;;;;;;;21.98;43.86;100435.28;1690384;85;21071;-70
2022/06/05 11:18:18;;;;;;;2.33;1.77;;;;;;;21.99;43.95;100430.55;1694977;84;21026;-69
2022/06/05 11:20:58;;;;;;;3.50;1.77;;;;;;;22.00;43.88;100429.44;1696001;84;21078;-70
2022/06/05 11:23:30;;;;;;;2.62;1.52;;;;;;;22.01;44.16;100426.92;1696048;84;21732;-71
2022/06/05 11:26:21;;;;;;;2.08;1.42;;;;;;;22.05;43.35;100428.93;1696215;84;21061;-69
2022/06/05 11:29:12;;;;;;;2.37;1.50;;;;;;;22.07;43.01;100420.28;1696309;84;21066;-65
2022/06/05 11:32:31;;;;;;;3.20;1.85;;;;;;;22.09;43.54;100433.41;1683118;84;21078;-70
2022/06/05 11:35:34;;;;;;;1.82;1.50;;;;;;;22.14;43.01;100427.33;1710130;83;21079;-71
2022/06/05 11:38:27;;;;;;;3.70;2.02;;;;;;;22.20;42.75;100429.58;1690606;85;21136;-75
2022/06/05 11:41:07;;;;;;;1.62;1.47;;;;;;;22.26;42.71;100429.87;1690343;84;21055;-67
2022/06/05 11:43:39;;;;;;;2.12;1.47;;;;;;;22.32;43.05;100427.94;1690672;85;21023;-69
2022/06/05 11:46:30;;;;;;;3.12;1.37;;;;;;;22.37;42.67;100429.34;1689199;84;21042;-67
2022/06/05 11:49:14;;;;;;;7.30;1.70;;;;;;;22.39;42.22;100427.95;1696225;84;21045;-65
2022/06/05 11:52:01;;;;;;;3.40;1.45;;;;;;;22.40;41.39;100429.63;1718878;83;20985;-69
2022/06/05 11:54:52;;;;;;;2.60;1.50;;;;;;;22.44;41.45;100430.77;1700749;84;21099;-68
2022/06/05 11:57:32;;;;;;;1.62;1.20;;;;;;;22.47;41.25;100425.19;1719037;83;21014;-70
2022/06/05 12:00:34;;;;;;;2.70;1.42;;;;;;;22.52;41.31;100429.94;1687216;84;21012;-70
2022/06/05 12:03:36;;;;;;;3.33;1.40;;;;;;;22.56;41.35;100439.44;1707558;84;21055;-71
2022/06/05 12:06:15;;;;;;;1.70;1.40;;;;;;;22.58;40.79;100446.42;1707205;84;21011;-71
2022/06/05 12:08:55;;;;;;;1.90;1.50;;;;;;;22.60;40.28;100449.78;1699349;84;21075;-70
2022/06/05 12:11:54;;;;;;;3.20;1.62;;;;;;;22.62;39.99;100447.55;1696620;84;21051;-71
2022/06/05 12:14:51;;;;;;;2.72;1.40;;;;;;;22.64;40.45;100445.88;1710806;84;21093;-69
2022/06/05 12:17:43;;;;;;;1.60;1.45;;;;;;;22.60;39.92;100444.75;1690484;85;21078;-70
2022/06/05 12:20:20;;;;;;;2.60;1.30;;;;;;;22.57;39.81;100436.93;1690258;84;21048;-70
2022/06/05 12:23:03;;;;;;;2.02;1.30;;;;;;;22.58;39.73;100444.20;1690397;84;21071;-70
2022/06/05 12:25:45;;;;;;;3.85;1.30;;;;;;;22.60;39.61;100440.56;1690352;85;21096;-77
2022/06/05 12:28:37;;;;;;;1.30;1.20;;;;;;;22.62;39.92;100446.16;1687451;85;21087;-75
2022/06/05 12:31:17;;;;;;;4.70;1.30;;;;;;;22.58;39.12;100445.03;1690495;84;21095;-67
2022/06/05 12:34:03;;;;;;;3.37;1.40;;;;;;;22.57;38.72;100444.75;1690998;84;21094;-69